Time;durP1;ratioP1;P1;durP2;ratioP2;P2;SDS_P1;SDS_P2;PMS_P1;PMS_P2;Temp;Humidity;BMP_temperature;BMP_pressure;BME280_temperature;BME280_humidity;BME280_pressure;Samples;Min_cycle;Max_cycle;Signal;HPM_P1;HPM_P2
2023/04/28 00:01:46;;;;;;;9.75;5.60;;;5.50;99.90;;;;;;5051772;28;20025;-51
2023/04/28 00:04:12;;;;;;;11.35;6.35;;;5.10;99.90;;;;;;5036552;28;20675;-51
2023/04/28 00:06:39;;;;;;;9.82;6.10;;;5.30;99.90;;;;;;5053160;28;20841;-51
2023/04/28 00:09:09;;;;;;;9.35;6.45;;;5.40;99.90;;;;;;5053227;28;20165;-52
2023/04/28 00:11:35;;;;;;;9.90;6.40;;;5.40;99.90;;;;;;5053184;28;20044;-50
2023/04/28 00:14:00;;;;;;;11.45;6.57;;;5.40;99.90;;;;;;5057847;28;20187;-50
2023/04/28 00:16:26;;;;;;;12.25;6.85;;;5.90;99.90;;;;;;5051164;28;20044;-51
2023/04/28 00:18:52;;;;;;;9.45;6.43;;;5.10;99.90;;;;;;5038165;28;20074;-50
2023/04/28 00:21:17;;;;;;;10.50;6.82;;;5.20;99.90;;;;;;5056051;28;20068;-49
2023/04/28 00:23:43;;;;;;;9.55;5.72;;;5.60;99.90;;;;;;5052563;28;20498;-52
2023/04/28 00:26:09;;;;;;;9.27;5.85;;;5.30;99.90;;;;;;5053978;28;20040;-49
2023/04/28 00:28:35;;;;;;;9.85;6.45;;;5.20;99.90;;;;;;5048207;28;20087;-52
2023/04/28 00:31:01;;;;;;;8.60;5.75;;;5.40;99.90;;;;;;5049994;28;20115;-52
2023/04/28 00:33:26;;;;;;;10.98;6.63;;;5.40;99.90;;;;;;5033894;28;20049;-49
2023/04/28 00:35:59;;;;;;;10.93;6.90;;;6.20;99.90;;;;;;5058129;28;20041;-50
2023/04/28 00:38:25;;;;;;;8.98;5.97;;;5.40;99.90;;;;;;5050110;28;20099;-52
2023/04/28 00:40:51;;;;;;;11.88;7.22;;;5.10;99.90;;;;;;5056277;28;20053;-49
2023/04/28 00:43:17;;;;;;;10.15;6.95;;;5.40;99.90;;;;;;5033415;28;20052;-53
2023/04/28 00:45:43;;;;;;;10.45;6.40;;;5.40;99.90;;;;;;5047244;28;20422;-52
2023/04/28 00:48:08;;;;;;;12.23;6.90;;;5.90;99.90;;;;;;5058766;28;20052;-52
2023/04/28 00:50:35;;;;;;;13.25;6.80;;;5.30;99.90;;;;;;5030678;28;20048;-51
2023/04/28 00:53:01;;;;;;;9.77;6.80;;;5.40;99.90;;;;;;5053571;28;20053;-49
2023/04/28 01:06:32;;;;;;;12.98;7.60;;;5.40;99.90;;;;;;5051815;28;20115;-52
2023/04/28 01:08:57;;;;;;;10.77;8.52;;;5.40;99.90;;;;;;5056938;28;20040;-50
2023/04/28 01:11:23;;;;;;;12.65;8.05;;;5.40;99.90;;;;;;5057811;28;20043;-51
2023/04/28 01:13:49;;;;;;;16.98;9.05;;;5.20;99.90;;;;;;5057751;28;20037;-51
2023/04/28 01:16:14;;;;;;;16.00;9.23;;;5.20;99.90;;;;;;5029881;28;20149;-51
2023/04/28 01:18:47;;;;;;;14.90;10.13;;;5.10;99.90;;;;;;5056818;28;20135;-48
2023/04/28 01:21:12;;;;;;;;;;;5.40;99.90;;;;;;5056955;28;20058;-53
2023/04/28 01:23:38;;;;;;;13.63;8.48;;;5.90;99.90;;;;;;5054309;28;20382;-50
2023/04/28 01:26:04;;;;;;;14.15;9.05;;;5.40;99.90;;;;;;5058307;28;20757;-48
2023/04/28 01:28:29;;;;;;;13.25;8.85;;;5.40;99.90;;;;;;5030105;28;20387;-50
2023/04/28 01:30:55;;;;;;;14.50;9.18;;;5.30;99.90;;;;;;5052431;28;20056;-51
2023/04/28 01:33:21;;;;;;;14.57;9.30;;;5.40;99.90;;;;;;5053624;28;20499;-50
2023/04/28 01:35:46;;;;;;;15.05;9.68;;;5.40;99.90;;;;;;5052147;28;20090;-49
2023/04/28 01:38:12;;;;;;;15.95;8.65;;;5.40;99.90;;;;;;5051403;28;20752;-51
2023/04/28 01:40:38;;;;;;;14.70;9.18;;;5.30;99.90;;;;;;5051652;28;20072;-51
2023/04/28 01:43:03;;;;;;;12.85;9.00;;;6.20;99.90;;;;;;5057448;28;20045;-49
2023/04/28 01:45:29;;;;;;;15.63;9.20;;;6.10;99.90;;;;;;5056169;28;20048;-51
2023/04/28 01:47:55;;;;;;;14.30;8.63;;;5.30;99.90;;;;;;5050201;28;20097;-51
2023/04/28 01:50:20;;;;;;;20.98;10.32;;;6.50;99.90;;;;;;5033983;28;20776;-48
2023/04/28 01:52:46;;;;;;;13.52;9.32;;;5.30;99.90;;;;;;5038882;28;20049;-51
2023/04/28 01:55:11;;;;;;;12.73;8.93;;;6.40;99.90;;;;;;5052701;28;20045;-51
2023/04/28 01:57:37;;;;;;;12.60;9.20;;;5.10;99.90;;;;;;5052826;28;20120;-51
2023/04/28 02:00:03;;;;;;;14.35;10.30;;;5.20;99.90;;;;;;5052254;28;20754;-51
2023/04/28 02:02:29;;;;;;;16.02;9.50;;;5.40;99.90;;;;;;5035944;28;20036;-51
2023/04/28 02:04:56;;;;;;;16.17;9.65;;;5.40;99.90;;;;;;5050999;28;20053;-48
2023/04/28 02:07:23;;;;;;;16.10;9.57;;;5.40;99.90;;;;;;5061082;28;20532;-52
2023/04/28 02:09:48;;;;;;;16.88;9.55;;;5.40;99.90;;;;;;5058281;28;20478;-52
2023/04/28 02:12:15;;;;;;;14.15;9.93;;;5.30;99.90;;;;;;5060973;28;20041;-50
2023/04/28 02:14:40;;;;;;;17.13;10.40;;;5.30;99.90;;;;;;5032814;28;20088;-49
2023/04/28 02:17:06;;;;;;;19.15;9.90;;;5.40;99.90;;;;;;5056286;28;20958;-49
2023/04/28 02:19:32;;;;;;;17.15;10.35;;;5.10;99.90;;;;;;5052826;28;20877;-50
2023/04/28 02:21:57;;;;;;;15.95;10.25;;;5.10;99.90;;;;;;5037220;28;20525;-52
2023/04/28 02:24:23;;;;;;;17.27;9.73;;;5.20;99.90;;;;;;5049039;28;20036;-51
2023/04/28 02:26:49;;;;;;;16.40;10.55;;;5.00;99.90;;;;;;5050836;28;20106;-52
2023/04/28 02:29:14;;;;;;;16.05;10.98;;;5.20;99.90;;;;;;5046667;28;20083;-50
2023/04/28 02:31:40;;;;;;;16.77;11.65;;;4.80;99.90;;;;;;5013052;28;20045;-49
2023/04/28 02:34:06;;;;;;;17.50;11.57;;;5.10;99.90;;;;;;5053550;28;20044;-51
2023/04/28 02:36:32;;;;;;;19.25;12.05;;;5.10;99.90;;;;;;5055355;28;20845;-49
2023/04/28 02:38:57;;;;;;;20.02;12.27;;;5.10;99.90;;;;;;5037640;28;20521;-50
2023/04/28 02:41:23;;;;;;;19.85;12.48;;;5.70;99.90;;;;;;5053335;28;20123;-50
2023/04/28 02:43:49;;;;;;;19.08;11.98;;;4.80;99.90;;;;;;5054287;28;20712;-50
2023/04/28 02:46:15;;;;;;;17.75;11.27;;;5.00;99.90;;;;;;5040587;28;20143;-51
2023/04/28 02:48:40;;;;;;;21.38;12.90;;;4.80;99.90;;;;;;5050095;28;20242;-52
2023/04/28 02:51:06;;;;;;;18.70;12.15;;;5.00;99.90;;;;;;5054741;28;20072;-52
2023/04/28 02:53:32;;;;;;;19.60;12.57;;;4.80;99.90;;;;;;5057531;28;20102;-51
2023/04/28 02:55:58;;;;;;;22.92;15.23;;;5.80;99.90;;;;;;5055183;28;20044;-49
2023/04/28 02:58:24;;;;;;;21.10;12.45;;;5.00;99.90;;;;;;5033417;28;20048;-51
2023/04/28 03:00:49;;;;;;;19.83;12.52;;;5.70;99.90;;;;;;5048815;28;20036;-51
2023/04/28 03:03:15;;;;;;;22.38;13.18;;;5.00;99.90;;;;;;5048055;28;20067;-48
2023/04/28 03:05:41;;;;;;;20.55;13.38;;;4.80;99.90;;;;;;5049741;28;20041;-51
2023/04/28 03:08:06;;;;;;;21.77;12.57;;;5.10;99.90;;;;;;5044739;28;20472;-52
2023/04/28 03:10:32;;;;;;;21.55;13.55;;;4.80;99.90;;;;;;5062402;28;20127;-49
2023/04/28 03:12:58;;;;;;;25.60;13.02;;;4.70;99.90;;;;;;5028530;28;20456;-51
2023/04/28 03:15:24;;;;;;;20.95;13.50;;;4.90;99.90;;;;;;5036948;28;20051;-50
2023/04/28 03:17:50;;;;;;;23.70;13.88;;;5.80;99.90;;;;;;5048728;28;20052;-50
2023/04/28 03:20:15;;;;;;;19.38;13.07;;;4.70;99.90;;;;;;5056465;28;20048;-51
2023/04/28 03:22:41;;;;;;;19.95;12.75;;;4.50;99.90;;;;;;5058270;28;20048;-50
2023/04/28 03:25:07;;;;;;;20.63;13.30;;;4.50;99.90;;;;;;5052179;28;20768;-49
2023/04/28 03:27:33;;;;;;;22.40;13.43;;;4.70;99.90;;;;;;5054405;28;20060;-49
2023/04/28 03:29:58;;;;;;;23.17;12.68;;;4.40;99.90;;;;;;5030401;28;20050;-50
2023/04/28 03:32:24;;;;;;;21.15;12.98;;;4.90;99.90;;;;;;5052878;28;20036;-51
2023/04/28 03:34:49;;;;;;;21.00;12.35;;;5.00;99.90;;;;;;5056932;28;20045;-49
2023/04/28 03:37:15;;;;;;;22.40;13.60;;;4.50;99.90;;;;;;5059471;28;20049;-49
2023/04/28 03:39:41;;;;;;;23.02;13.60;;;4.60;99.90;;;;;;5037255;28;20056;-49
2023/04/28 03:42:06;;;;;;;22.15;13.32;;;4.60;99.90;;;;;;5052330;28;20053;-50
2023/04/28 03:44:32;;;;;;;23.55;12.98;;;4.60;99.90;;;;;;5057596;28;20045;-48
2023/04/28 03:46:58;;;;;;;23.73;14.13;;;4.60;99.90;;;;;;5056513;28;20080;-50
2023/04/28 03:49:24;;;;;;;25.25;15.32;;;4.60;99.90;;;;;;5051897;28;20060;-48
2023/04/28 03:51:50;;;;;;;26.30;14.52;;;4.60;99.90;;;;;;5032163;28;20158;-50
2023/04/28 03:54:16;;;;;;;28.00;17.70;;;4.70;99.90;;;;;;5056862;28;20052;-50
2023/04/28 03:56:42;;;;;;;30.52;15.00;;;6.70;99.90;;;;;;5028108;28;20075;-51
2023/04/28 03:59:10;;;;;;;26.25;14.50;;;4.70;99.90;;;;;;5056078;28;20047;-49
2023/04/28 04:01:36;;;;;;;23.30;14.38;;;4.80;99.90;;;;;;5059188;28;20471;-52
2023/04/28 04:04:03;;;;;;;27.35;15.48;;;4.30;99.90;;;;;;5061127;28;20044;-51
2023/04/28 04:06:29;;;;;;;24.85;14.07;;;4.70;99.90;;;;;;5050526;28;20044;-50
2023/04/28 04:08:54;;;;;;;25.40;15.52;;;4.70;99.90;;;;;;5038905;28;20063;-51
2023/04/28 04:11:20;;;;;;;24.70;15.57;;;4.70;99.90;;;;;;5059351;28;20099;-50
2023/04/28 04:13:46;;;;;;;28.75;15.55;;;4.60;99.90;;;;;;5040940;28;20072;-52
2023/04/28 04:16:14;;;;;;;26.85;15.65;;;5.10;99.90;;;;;;5046291;28;20790;-51
2023/04/28 04:18:40;;;;;;;33.30;15.68;;;4.80;99.90;;;;;;5034440;28;20131;-51
2023/04/28 04:21:06;;;;;;;34.20;17.38;;;4.80;99.90;;;;;;5051042;28;20037;-50
2023/04/28 04:23:31;;;;;;;24.63;14.80;;;4.80;99.90;;;;;;5041063;28;20480;-52
2023/04/28 04:25:57;;;;;;;26.13;14.45;;;4.90;99.90;;;;;;5055480;28;20041;-48
2023/04/28 04:28:23;;;;;;;22.70;13.63;;;4.90;99.90;;;;;;5054465;28;20045;-50
2023/04/28 04:30:48;;;;;;;21.85;13.77;;;5.00;99.90;;;;;;5055720;28;20317;-51
2023/04/28 04:33:14;;;;;;;27.95;14.73;;;4.90;99.90;;;;;;5035184;28;20182;-50
2023/04/28 04:35:40;;;;;;;23.90;14.07;;;5.40;99.90;;;;;;5047802;28;20439;-50
2023/04/28 04:38:06;;;;;;;25.55;15.70;;;4.90;99.90;;;;;;5054760;28;20067;-51
2023/04/28 04:40:32;;;;;;;24.17;13.70;;;5.00;99.90;;;;;;5053552;28;20045;-49
2023/04/28 04:42:57;;;;;;;25.42;14.15;;;5.00;99.90;;;;;;5046639;28;21065;-49
2023/04/28 04:45:23;;;;;;;27.27;14.82;;;5.00;99.90;;;;;;5047820;28;20495;-50
2023/04/28 04:47:49;;;;;;;24.85;13.90;;;5.30;99.90;;;;;;5034229;28;20105;-52
2023/04/28 04:50:14;;;;;;;22.73;13.45;;;5.70;99.90;;;;;;5057822;28;20587;-50
2023/04/28 04:52:40;;;;;;;26.63;14.88;;;5.10;99.90;;;;;;5035688;28;20116;-50
2023/04/28 04:55:06;;;;;;;24.70;13.85;;;5.10;99.90;;;;;;5058081;28;20091;-50
2023/04/28 04:57:32;;;;;;;24.05;13.80;;;5.20;99.90;;;;;;5057501;28;20048;-51
2023/04/28 04:59:58;;;;;;;23.75;13.52;;;5.20;99.90;;;;;;5047714;28;20040;-52
2023/04/28 05:02:23;;;;;;;28.50;15.98;;;5.20;99.90;;;;;;5057985;28;20036;-49
2023/04/28 05:04:49;;;;;;;23.13;14.48;;;6.10;99.90;;;;;;5054662;28;20049;-48
2023/04/28 05:07:14;;;;;;;22.05;13.27;;;5.30;99.90;;;;;;5050529;28;20045;-52
2023/04/28 05:09:40;;;;;;;21.80;14.30;;;5.30;99.90;;;;;;5033903;28;20036;-52
2023/04/28 05:12:06;;;;;;;20.88;12.98;;;5.40;99.90;;;;;;5058846;28;20135;-52
2023/04/28 05:14:31;;;;;;;23.92;13.85;;;5.30;99.90;;;;;;5058145;28;20136;-52
2023/04/28 05:16:57;;;;;;;20.75;12.98;;;5.20;99.90;;;;;;5053764;28;20148;-50
2023/04/28 05:19:23;;;;;;;22.33;12.65;;;5.30;99.90;;;;;;5049418;28;20048;-52
2023/04/28 05:21:51;;;;;;;22.55;13.73;;;5.30;99.90;;;;;;5054103;28;20184;-49
2023/04/28 05:24:17;;;;;;;25.50;13.38;;;5.50;99.90;;;;;;5055587;28;20051;-49
2023/04/28 05:26:42;;;;;;;22.27;12.77;;;5.40;99.90;;;;;;5033566;28;20402;-50
2023/04/28 05:29:08;;;;;;;24.33;13.27;;;5.30;99.90;;;;;;5029245;28;20045;-50
2023/04/28 05:31:34;;;;;;;23.73;13.68;;;5.40;99.90;;;;;;5034896;28;20080;-51
2023/04/28 05:34:00;;;;;;;20.67;12.48;;;5.80;99.90;;;;;;5038487;28;20044;-50
2023/04/28 05:36:26;;;;;;;19.48;12.73;;;5.40;99.90;;;;;;5035394;28;20052;-52
2023/04/28 05:38:51;;;;;;;19.63;13.38;;;5.60;99.90;;;;;;5030088;28;20045;-51
2023/04/28 05:41:17;;;;;;;20.55;13.75;;;5.60;99.90;;;;;;5053182;28;20124;-51
2023/04/28 05:43:43;;;;;;;19.63;12.48;;;5.80;99.90;;;;;;5056177;28;20045;-52
2023/04/28 05:46:08;;;;;;;19.83;12.70;;;6.60;99.90;;;;;;5052771;28;20124;-51
2023/04/28 05:48:34;;;;;;;20.02;12.10;;;6.10;99.90;;;;;;5047400;28;20628;-50
2023/04/28 05:51:00;;;;;;;22.00;12.57;;;6.20;99.90;;;;;;5052732;28;20085;-51
2023/04/28 05:53:26;;;;;;;22.50;12.80;;;6.50;99.90;;;;;;5038702;28;20044;-52
2023/04/28 05:55:52;;;;;;;18.55;11.52;;;7.00;99.90;;;;;;5014348;28;20045;-51
2023/04/28 05:58:17;;;;;;;17.52;12.00;;;6.50;99.90;;;;;;5027680;28;20088;-53
2023/04/28 06:00:43;;;;;;;19.40;11.93;;;6.50;99.90;;;;;;5053943;28;20041;-51
2023/04/28 06:03:09;;;;;;;20.00;12.07;;;6.50;99.90;;;;;;5052089;28;20045;-51
2023/04/28 06:05:36;;;;;;;20.88;10.48;;;6.50;99.90;;;;;;5053459;28;20045;-50
2023/04/28 06:08:02;;;;;;;14.73;11.02;;;6.50;99.90;;;;;;5047814;28;20044;-51
2023/04/28 06:10:28;;;;;;;17.63;10.98;;;6.50;99.90;;;;;;5063021;28;20058;-51
2023/04/28 06:12:54;;;;;;;19.38;11.80;;;6.50;99.90;;;;;;5039719;28;20040;-53
2023/04/28 06:15:19;;;;;;;17.15;11.05;;;6.90;99.90;;;;;;5034987;28;20057;-48
2023/04/28 06:17:45;;;;;;;18.40;10.90;;;6.50;99.90;;;;;;5035803;28;20051;-52
2023/04/28 06:20:12;;;;;;;15.90;11.13;;;6.30;99.90;;;;;;5032506;28;20398;-51
2023/04/28 06:22:39;;;;;;;19.77;11.60;;;6.50;99.90;;;;;;5055235;28;20520;-52
2023/04/28 06:25:06;;;;;;;21.17;11.73;;;6.50;99.90;;;;;;5052332;28;20869;-50
2023/04/28 06:27:31;;;;;;;18.13;11.00;;;6.60;99.90;;;;;;5028522;28;20052;-52
2023/04/28 06:29:58;;;;;;;16.77;11.38;;;6.60;99.90;;;;;;5033334;28;20051;-49
2023/04/28 06:32:23;;;;;;;16.55;10.68;;;6.90;99.90;;;;;;5057909;28;20056;-51
2023/04/28 06:34:49;;;;;;;17.60;10.55;;;6.70;99.90;;;;;;5053856;28;20040;-51
2023/04/28 06:37:15;;;;;;;13.05;10.07;;;6.70;99.90;;;;;;5031075;28;20051;-52
2023/04/28 06:39:41;;;;;;;22.95;10.57;;;7.20;99.90;;;;;;5045515;28;20660;-49
2023/04/28 06:42:07;;;;;;;17.65;11.25;;;7.10;99.90;;;;;;5047987;28;20804;-51
2023/04/28 06:44:32;;;;;;;14.77;10.95;;;6.80;99.90;;;;;;5056995;28;20048;-51
2023/04/28 06:46:58;;;;;;;16.45;10.52;;;7.30;99.90;;;;;;5056600;28;20052;-50
2023/04/28 06:49:24;;;;;;;17.92;10.98;;;6.80;99.90;;;;;;5053275;28;20123;-51
2023/04/28 06:51:50;;;;;;;19.55;10.70;;;6.90;99.90;;;;;;5050046;28;20491;-50
2023/04/28 06:54:16;;;;;;;17.20;10.85;;;6.90;99.90;;;;;;5025098;28;20143;-50
2023/04/28 06:56:41;;;;;;;13.98;9.77;;;7.50;99.90;;;;;;5038700;28;20045;-52
2023/04/28 06:59:07;;;;;;;17.40;10.60;;;6.80;99.90;;;;;;5038941;28;20909;-52
2023/04/28 07:01:33;;;;;;;19.33;11.13;;;7.30;99.90;;;;;;5056558;28;20033;-52
2023/04/28 07:03:59;;;;;;;18.63;10.13;;;7.50;99.90;;;;;;5053621;28;20131;-53
2023/04/28 07:06:27;;;;;;;15.82;10.25;;;6.80;99.90;;;;;;5019086;28;20054;-58
2023/04/28 07:08:53;;;;;;;19.27;9.77;;;6.90;99.90;;;;;;5040533;28;20055;-57
2023/04/28 07:11:19;;;;;;;15.45;10.18;;;6.80;99.90;;;;;;5061874;28;20064;-58
2023/04/28 07:13:49;;;;;;;17.13;9.93;;;6.90;99.90;;;;;;5058020;28;20123;-58
2023/04/28 07:16:15;;;;;;;16.27;10.35;;;7.20;99.90;;;;;;5060061;28;20548;-57
2023/04/28 07:18:40;;;;;;;18.38;11.60;;;7.00;99.90;;;;;;5053516;28;20576;-58
2023/04/28 07:21:06;;;;;;;19.85;10.93;;;7.00;99.90;;;;;;5036483;28;20152;-58
2023/04/28 07:23:32;;;;;;;15.95;10.20;;;7.00;99.90;;;;;;5059424;28;20490;-58
2023/04/28 07:26:00;;;;;;;15.98;10.20;;;7.10;99.90;;;;;;5058971;28;20414;-58
2023/04/28 07:28:25;;;;;;;17.33;9.55;;;7.10;99.90;;;;;;5037053;28;20041;-58
2023/04/28 07:30:51;;;;;;;15.98;9.90;;;6.80;99.90;;;;;;5037229;28;20098;-58
2023/04/28 07:33:17;;;;;;;14.35;10.35;;;7.30;99.90;;;;;;5061473;28;20037;-58
2023/04/28 07:35:43;;;;;;;14.85;9.25;;;7.30;99.90;;;;;;5056672;28;20037;-58
2023/04/28 07:38:08;;;;;;;16.27;9.88;;;7.40;99.90;;;;;;5056234;28;20047;-58
2023/04/28 07:40:34;;;;;;;19.52;9.80;;;7.40;99.90;;;;;;5058878;28;20344;-58
2023/04/28 07:43:00;;;;;;;13.90;8.18;;;7.00;99.90;;;;;;5058248;28;20040;-52
2023/04/28 07:45:28;;;;;;;13.88;8.88;;;8.10;99.90;;;;;;5021656;28;20050;-53
2023/04/28 07:47:53;;;;;;;12.65;8.77;;;7.50;99.90;;;;;;5064929;28;20066;-60
2023/04/28 07:50:19;;;;;;;13.80;8.40;;;7.50;99.90;;;;;;5059208;28;20032;-58
2023/04/28 07:52:45;;;;;;;12.10;9.05;;;7.60;99.90;;;;;;5047428;28;20045;-58
2023/04/28 07:55:10;;;;;;;13.93;10.20;;;7.90;99.90;;;;;;5060650;28;20538;-59
2023/04/28 07:57:36;;;;;;;13.10;8.80;;;7.80;99.90;;;;;;5060751;28;20780;-58
2023/04/28 08:00:02;;;;;;;13.55;8.23;;;7.80;99.90;;;;;;5012021;28;20060;-65
2023/04/28 08:02:33;;;;;;;11.15;8.32;;;8.00;99.90;;;;;;5032891;28;20149;-62
2023/04/28 08:04:58;;;;;;;13.52;9.15;;;8.50;99.90;;;;;;5026732;28;20105;-60
2023/04/28 08:07:25;;;;;;;11.38;7.63;;;8.20;99.90;;;;;;5033342;28;20041;-61
2023/04/28 08:09:51;;;;;;;13.93;8.35;;;8.10;99.90;;;;;;5035041;28;20468;-59
2023/04/28 08:12:17;;;;;;;14.10;7.93;;;8.20;99.90;;;;;;5047476;28;20031;-63
2023/04/28 08:14:42;;;;;;;12.23;7.93;;;8.30;99.90;;;;;;5034911;28;20052;-63
2023/04/28 08:17:08;;;;;;;13.40;8.13;;;8.40;99.80;;;;;;5035123;28;20501;-64
2023/04/28 08:19:34;;;;;;;13.77;8.18;;;8.40;99.70;;;;;;5042843;28;20040;-59
2023/04/28 08:22:04;;;;;;;10.45;7.70;;;8.50;99.30;;;;;;4998596;28;20049;-48
2023/04/28 08:24:33;;;;;;;13.70;8.23;;;8.60;99.40;;;;;;5055689;28;20048;-55
2023/04/28 08:27:01;;;;;;;11.43;7.68;;;8.60;99.40;;;;;;5060652;28;20052;-54
2023/04/28 08:29:31;;;;;;;10.65;7.88;;;8.80;99.50;;;;;;5054784;28;20787;-55
2023/04/28 08:31:57;;;;;;;12.63;8.07;;;8.80;98.90;;;;;;5055849;28;20057;-54
2023/04/28 08:34:23;;;;;;;10.98;7.28;;;8.90;98.80;;;;;;5046925;28;20052;-55
2023/04/28 08:36:50;;;;;;;10.48;7.78;;;8.90;98.70;;;;;;5050560;28;20049;-56
2023/04/28 08:39:16;;;;;;;9.75;6.68;;;9.10;99.10;;;;;;5052702;28;20044;-55
2023/04/28 08:41:42;;;;;;;12.55;7.40;;;9.30;99.10;;;;;;5051679;28;20773;-56
2023/04/28 08:44:11;;;;;;;10.35;7.25;;;9.40;99.00;;;;;;5052144;28;20098;-55
2023/04/28 08:46:43;;;;;;;11.82;7.25;;;9.60;99.30;;;;;;5050128;28;20540;-56
2023/04/28 08:49:17;;;;;;;12.98;7.53;;;10.00;99.80;;;;;;5055268;28;20103;-55
2023/04/28 08:51:52;;;;;;;13.02;8.43;;;9.90;99.10;;;;;;5056038;28;20049;-56
2023/04/28 08:54:19;;;;;;;10.73;8.13;;;10.10;99.00;;;;;;5053187;28;20079;-55
2023/04/28 08:56:45;;;;;;;12.57;6.95;;;10.30;98.60;;;;;;5047587;28;20037;-56
2023/04/28 08:59:12;;;;;;;10.73;7.05;;;10.20;98.10;;;;;;5052664;28;20049;-56
2023/04/28 09:01:40;;;;;;;10.07;7.65;;;10.00;97.60;;;;;;5034993;28;20048;-56
2023/04/28 09:04:06;;;;;;;13.90;7.75;;;10.00;97.70;;;;;;5050892;28;20765;-56
2023/04/28 09:06:37;;;;;;;14.57;7.57;;;10.00;98.00;;;;;;5048907;28;20049;-55
2023/04/28 09:09:23;;;;;;;12.57;7.95;;;10.10;98.40;;;;;;5043397;28;20048;-55
2023/04/28 09:12:00;;;;;;;13.90;8.40;;;10.00;99.20;;;;;;5053738;28;20071;-55
2023/04/28 09:14:31;;;;;;;16.83;9.10;;;10.00;99.70;;;;;;5049417;28;20081;-55
2023/04/28 09:16:57;;;;;;;11.82;8.13;;;10.10;99.90;;;;;;5053361;28;20061;-55
2023/04/28 09:19:23;;;;;;;11.48;8.70;;;10.00;99.90;;;;;;5039490;28;20106;-54
2023/04/28 09:21:54;;;;;;;14.45;9.27;;;10.10;99.90;;;;;;5033742;28;20080;-54
2023/04/28 09:24:39;;;;;;;12.82;8.15;;;10.20;99.90;;;;;;5047087;28;20046;-54
2023/04/28 09:27:09;;;;;;;13.02;8.15;;;10.20;99.90;;;;;;5050411;28;20067;-55
2023/04/28 09:29:36;;;;;;;13.27;8.20;;;10.20;99.90;;;;;;5035121;28;20452;-54
2023/04/28 09:32:19;;;;;;;10.30;7.88;;;10.10;99.90;;;;;;5033886;28;20106;-55
2023/04/28 09:34:50;;;;;;;10.15;8.27;;;10.30;99.90;;;;;;5030014;28;20149;-55
2023/04/28 09:37:18;;;;;;;10.77;7.60;;;10.90;99.90;;;;;;5046795;28;20053;-55
2023/04/28 09:39:46;;;;;;;12.00;8.98;;;10.90;99.90;;;;;;5032645;28;20098;-54
2023/04/28 09:42:42;;;;;;;10.32;8.15;;;10.90;99.90;;;;;;5055566;28;20500;-54
2023/04/28 09:45:09;;;;;;;11.05;8.80;;;11.10;99.90;;;;;;5054699;28;20059;-55
2023/04/28 09:47:37;;;;;;;8.63;7.22;;;11.30;99.90;;;;;;5049643;28;20114;-55
2023/04/28 09:50:07;;;;;;;11.25;7.45;;;11.70;99.90;;;;;;5045584;28;20056;-55
2023/04/28 09:52:34;;;;;;;8.20;7.30;;;11.80;99.90;;;;;;5035508;28;20049;-56
2023/04/28 09:55:01;;;;;;;11.25;7.75;;;11.90;99.90;;;;;;5053568;28;20060;-55
2023/04/28 09:57:31;;;;;;;11.25;7.45;;;11.90;99.90;;;;;;5048196;28;20044;-55
2023/04/28 09:59:58;;;;;;;11.65;8.18;;;11.80;98.90;;;;;;5046416;28;20056;-55
2023/04/28 10:02:24;;;;;;;12.43;7.95;;;11.70;98.60;;;;;;5051015;28;20084;-56
2023/04/28 10:04:51;;;;;;;9.57;7.10;;;11.70;98.70;;;;;;5050715;28;20044;-58
2023/04/28 10:07:20;;;;;;;8.43;7.20;;;11.70;98.80;;;;;;5053717;28;20533;-56
2023/04/28 10:09:49;;;;;;;11.32;7.28;;;11.90;99.00;;;;;;5050951;28;20111;-56
2023/04/28 10:12:16;;;;;;;9.93;7.13;;;12.10;98.90;;;;;;5059468;28;20052;-55
2023/04/28 10:14:43;;;;;;;11.05;7.32;;;12.10;98.30;;;;;;5028113;28;20128;-56
2023/04/28 10:17:10;;;;;;;12.23;7.03;;;12.10;98.20;;;;;;5053066;28;20052;-55
2023/04/28 10:19:36;;;;;;;11.43;6.82;;;12.20;98.20;;;;;;5056139;28;20040;-55
2023/04/28 10:22:17;;;;;;;11.05;8.05;;;12.40;98.30;;;;;;5060790;28;20483;-55
2023/04/28 10:25:43;;;;;;;9.15;7.45;;;12.70;98.00;;;;;;5009159;28;20048;-59
2023/04/28 10:28:12;;;;;;;10.18;7.75;;;12.80;97.30;;;;;;5033228;28;20119;-55
2023/04/28 10:30:37;;;;;;;10.25;7.55;;;12.80;97.60;;;;;;5041368;28;20047;-56
2023/04/28 10:33:12;;;;;;;8.25;6.80;;;12.70;97.10;;;;;;5044940;28;20041;-55
2023/04/28 10:35:39;;;;;;;10.18;7.00;;;12.60;97.10;;;;;;5045353;28;20566;-57
2023/04/28 10:38:05;;;;;;;11.40;7.40;;;12.60;97.60;;;;;;5046639;28;20040;-60
2023/04/28 10:40:35;;;;;;;9.20;6.88;;;12.70;97.50;;;;;;5048290;28;20029;-59
2023/04/28 10:43:01;;;;;;;9.25;6.68;;;12.70;97.20;;;;;;5043612;28;20039;-60
2023/04/28 10:45:58;;;;;;;9.48;6.80;;;12.70;97.30;;;;;;5042423;28;20875;-55
2023/04/28 10:48:33;;;;;;;9.48;6.85;;;12.80;97.70;;;;;;5038687;28;20041;-52
2023/04/28 10:51:05;;;;;;;9.93;6.65;;;13.00;97.50;;;;;;5036211;28;20033;-54
2023/04/28 10:56:25;;;;;;;9.98;6.63;;;13.30;96.60;;;;;;5044464;28;20044;-57
2023/04/28 10:58:51;;;;;;;9.43;6.32;;;13.30;96.50;;;;;;5045922;28;20040;-58
2023/04/28 11:01:20;;;;;;;10.88;6.88;;;13.40;96.80;;;;;;5046637;28;20075;-57
2023/04/28 11:03:49;;;;;;;8.65;6.63;;;13.50;96.40;;;;;;5023369;28;20068;-56
2023/04/28 11:06:28;;;;;;;9.63;6.85;;;13.50;96.60;;;;;;5047200;28;20036;-61
2023/04/28 11:08:56;;;;;;;10.13;6.10;;;13.50;96.60;;;;;;5024987;28;20590;-56
2023/04/28 11:11:24;;;;;;;8.98;6.35;;;13.50;96.50;;;;;;5043969;28;20036;-58
2023/04/28 11:13:51;;;;;;;9.95;6.90;;;13.50;96.40;;;;;;5044068;28;20048;-56
2023/04/28 11:16:24;;;;;;;9.38;6.80;;;13.60;96.60;;;;;;5050029;28;20615;-56
2023/04/28 11:18:51;;;;;;;8.43;5.97;;;13.80;97.00;;;;;;5062847;28;20461;-56
2023/04/28 11:21:21;;;;;;;9.38;6.65;;;13.90;96.90;;;;;;5046577;28;20152;-56
2023/04/28 11:23:47;;;;;;;11.73;6.75;;;14.00;96.80;;;;;;5052741;28;20139;-56
2023/04/28 11:26:13;;;;;;;11.23;7.30;;;14.10;96.50;;;;;;5059227;28;20037;-56
2023/04/28 11:28:54;;;;;;;10.68;6.90;;;14.20;96.20;;;;;;5057488;28;20040;-56
2023/04/28 11:31:22;;;;;;;10.40;6.70;;;14.30;96.30;;;;;;5051826;28;20379;-57
2023/04/28 11:34:13;;;;;;;9.10;7.15;;;15.60;96.90;;;;;;5057288;28;20926;-56
2023/04/28 11:36:40;;;;;;;8.93;6.55;;;14.30;95.40;;;;;;5055763;28;20041;-56
2023/04/28 11:39:08;;;;;;;11.93;7.10;;;14.30;95.70;;;;;;5048960;28;20049;-56
2023/04/28 11:41:41;;;;;;;12.05;7.47;;;14.20;95.60;;;;;;5052354;28;20044;-56
2023/04/28 11:44:11;;;;;;;10.82;6.55;;;14.20;95.50;;;;;;5054424;28;20375;-55
2023/04/28 11:46:43;;;;;;;9.85;6.65;;;14.20;95.60;;;;;;5053905;28;20055;-56
2023/04/28 11:49:09;;;;;;;10.52;6.97;;;14.10;96.10;;;;;;5049172;28;20059;-55
2023/04/28 11:51:37;;;;;;;8.73;6.70;;;14.10;96.30;;;;;;5034144;28;20049;-56
2023/04/28 11:54:10;;;;;;;10.07;7.50;;;14.10;96.30;;;;;;5057269;28;20122;-55
2023/04/28 11:56:37;;;;;;;14.38;7.13;;;14.10;96.00;;;;;;5024996;28;20048;-56
2023/04/28 11:59:06;;;;;;;7.82;5.95;;;14.00;96.00;;;;;;5054219;28;20068;-56
2023/04/28 12:01:33;;;;;;;9.45;6.60;;;14.00;96.20;;;;;;5049036;28;20045;-56
2023/04/28 12:03:59;;;;;;;9.02;6.45;;;13.90;96.10;;;;;;5054360;28;20204;-55
2023/04/28 12:06:25;;;;;;;10.32;6.45;;;13.90;96.10;;;;;;5054578;28;20132;-56
2023/04/28 12:08:51;;;;;;;8.80;6.20;;;13.90;96.20;;;;;;5047499;28;20076;-56
2023/04/28 12:11:17;;;;;;;9.18;6.60;;;13.90;96.10;;;;;;5039249;28;20041;-56
2023/04/28 12:14:01;;;;;;;7.65;6.28;;;14.00;96.10;;;;;;5053780;28;20083;-56
2023/04/28 12:16:38;;;;;;;10.80;6.40;;;14.90;96.40;;;;;;5052979;28;20479;-56
2023/04/28 12:19:06;;;;;;;8.13;6.70;;;14.10;96.10;;;;;;5045795;28;20040;-57
2023/04/28 12:21:32;;;;;;;8.90;7.10;;;14.10;95.70;;;;;;5058704;28;20056;-56
2023/04/28 12:23:58;;;;;;;8.65;6.88;;;14.10;96.30;;;;;;5033090;28;20049;-57
2023/04/28 12:26:24;;;;;;;11.38;6.57;;;14.20;96.20;;;;;;5039963;28;21084;-56
2023/04/28 12:28:50;;;;;;;8.57;6.68;;;14.20;96.10;;;;;;5038915;28;20087;-56
2023/04/28 12:31:16;;;;;;;8.77;6.40;;;14.30;96.30;;;;;;5050019;28;20048;-57
2023/04/28 12:33:43;;;;;;;10.27;6.50;;;14.30;96.30;;;;;;5050137;28;20045;-57
2023/04/28 12:36:09;;;;;;;9.93;7.53;;;14.40;96.30;;;;;;5055593;28;20051;-56
2023/04/28 12:38:34;;;;;;;12.23;7.18;;;14.40;96.30;;;;;;5055283;28;20040;-57
2023/04/28 12:41:00;;;;;;;9.95;7.20;;;14.40;96.30;;;;;;5047313;28;20117;-57
2023/04/28 12:43:27;;;;;;;12.00;7.55;;;14.40;96.20;;;;;;5051961;28;20475;-57
2023/04/28 12:45:55;;;;;;;8.63;7.18;;;14.40;96.10;;;;;;5052879;28;20645;-57
2023/04/28 12:48:22;;;;;;;12.52;7.28;;;14.40;96.30;;;;;;5052008;28;20095;-56
2023/04/28 12:50:48;;;;;;;8.85;7.40;;;14.40;96.30;;;;;;5052508;28;20106;-56
2023/04/28 12:53:14;;;;;;;9.00;7.50;;;14.40;96.20;;;;;;5052766;28;20052;-56
2023/04/28 12:55:39;;;;;;;9.10;7.20;;;14.50;96.40;;;;;;5057154;28;20037;-56